sensor_id;sensor_type;location;lat;lon;timestamp;P1;durP1;ratioP1;P2;durP2;ratioP2
12842;SDS011;35724;49.324;-123.118;2023-10-13T00:04:10;6.65;;;6.13;;
12842;SDS011;35724;49.324;-123.118;2023-10-13T00:14:19;6.82;;;5.60;;
12842;SDS011;35724;49.324;-123.118;2023-10-13T00:24:26;6.00;;;5.50;;
12842;SDS011;35724;49.324;-123.118;2023-10-13T00:34:45;6.45;;;5.88;;
12842;SDS011;35724;49.324;-123.118;2023-10-13T00:44:52;6.68;;;6.07;;
12842;SDS011;35724;49.324;-123.118;2023-10-13T00:55:01;6.55;;;4.35;;
12842;SDS011;35724;49.324;-123.118;2023-10-13T01:05:12;5.57;;;3.60;;
12842;SDS011;35724;49.324;-123.118;2023-10-13T01:15:25;3.75;;;3.45;;
12842;SDS011;35724;49.324;-123.118;2023-10-13T01:25:35;2.75;;;2.20;;
12842;SDS011;35724;49.324;-123.118;2023-10-13T01:35:45;2.60;;;2.08;;
12842;SDS011;35724;49.324;-123.118;2023-10-13T01:45:54;3.67;;;2.70;;
12842;SDS011;35724;49.324;-123.118;2023-10-13T01:56:01;4.18;;;2.25;;
12842;SDS011;35724;49.324;-123.118;2023-10-13T02:06:15;2.72;;;2.28;;
12842;SDS011;35724;49.324;-123.118;2023-10-13T02:16:27;2.08;;;1.88;;
12842;SDS011;35724;49.324;-123.118;2023-10-13T02:26:36;3.75;;;3.00;;
12842;SDS011;35724;49.324;-123.118;2023-10-13T02:36:45;6.32;;;3.05;;
12842;SDS011;35724;49.324;-123.118;2023-10-13T02:46:54;5.85;;;3.58;;
12842;SDS011;35724;49.324;-123.118;2023-10-13T02:57:01;5.60;;;3.20;;
12842;SDS011;35724;49.324;-123.118;2023-10-13T03:07:10;4.47;;;3.80;;
12842;SDS011;35724;49.324;-123.118;2023-10-13T03:17:19;7.95;;;3.60;;
12842;SDS011;35724;49.324;-123.118;2023-10-13T03:27:39;5.70;;;3.25;;
12842;SDS011;35724;49.324;-123.118;2023-10-13T03:38:05;4.80;;;4.00;;
12842;SDS011;35724;49.324;-123.118;2023-10-13T03:48:22;6.78;;;4.45;;
12842;SDS011;35724;49.324;-123.118;2023-10-13T03:58:34;2.92;;;2.65;;
12842;SDS011;35724;49.324;-123.118;2023-10-13T04:08:44;10.02;;;7.80;;
12842;SDS011;35724;49.324;-123.118;2023-10-13T04:18:53;4.38;;;2.83;;
12842;SDS011;35724;49.324;-123.118;2023-10-13T04:29:13;3.97;;;2.88;;
12842;SDS011;35724;49.324;-123.118;2023-10-13T04:39:32;2.58;;;2.33;;
12842;SDS011;35724;49.324;-123.118;2023-10-13T04:49:44;2.25;;;2.05;;
12842;SDS011;35724;49.324;-123.118;2023-10-13T04:59:57;2.65;;;1.75;;
12842;SDS011;35724;49.324;-123.118;2023-10-13T05:10:32;2.20;;;1.38;;
12842;SDS011;35724;49.324;-123.118;2023-10-13T05:20:57;1.50;;;1.10;;
12842;SDS011;35724;49.324;-123.118;2023-10-13T05:31:22;3.25;;;1.50;;
12842;SDS011;35724;49.324;-123.118;2023-10-13T05:41:49;2.33;;;1.10;;
12842;SDS011;35724;49.324;-123.118;2023-10-13T05:52:14;2.53;;;1.20;;
12842;SDS011;35724;49.324;-123.118;2023-10-13T06:02:44;1.30;;;1.20;;
12842;SDS011;35724;49.324;-123.118;2023-10-13T06:13:09;1.95;;;1.10;;
12842;SDS011;35724;49.324;-123.118;2023-10-13T06:23:34;1.38;;;1.00;;
12842;SDS011;35724;49.324;-123.118;2023-10-13T06:33:59;1.70;;;1.05;;
12842;SDS011;35724;49.324;-123.118;2023-10-13T06:44:08;1.98;;;1.00;;
12842;SDS011;35724;49.324;-123.118;2023-10-13T06:54:21;1.52;;;1.00;;
12842;SDS011;35724;49.324;-123.118;2023-10-13T07:04:28;2.67;;;1.30;;
12842;SDS011;35724;49.324;-123.118;2023-10-13T07:14:37;3.72;;;1.35;;
12842;SDS011;35724;49.324;-123.118;2023-10-13T07:24:44;1.10;;;1.00;;
12842;SDS011;35724;49.324;-123.118;2023-10-13T07:34:55;1.95;;;1.10;;
12842;SDS011;35724;49.324;-123.118;2023-10-13T07:45:09;2.25;;;1.10;;
12842;SDS011;35724;49.324;-123.118;2023-10-13T07:55:19;0.95;;;0.82;;
12842;SDS011;35724;49.324;-123.118;2023-10-13T08:05:26;1.20;;;1.10;;
12842;SDS011;35724;49.324;-123.118;2023-10-13T08:15:45;1.60;;;0.90;;
12842;SDS011;35724;49.324;-123.118;2023-10-13T08:25:53;1.33;;;0.95;;
12842;SDS011;35724;49.324;-123.118;2023-10-13T08:36:35;1.63;;;1.15;;
12842;SDS011;35724;49.324;-123.118;2023-10-13T08:46:43;3.28;;;1.17;;
12842;SDS011;35724;49.324;-123.118;2023-10-13T08:57:17;2.33;;;1.00;;
12842;SDS011;35724;49.324;-123.118;2023-10-13T09:07:44;1.15;;;0.85;;
12842;SDS011;35724;49.324;-123.118;2023-10-13T09:18:07;1.55;;;0.80;;
12842;SDS011;35724;49.324;-123.118;2023-10-13T09:28:19;1.67;;;0.90;;
12842;SDS011;35724;49.324;-123.118;2023-10-13T09:38:31;2.67;;;0.82;;
12842;SDS011;35724;49.324;-123.118;2023-10-13T09:48:42;0.80;;;0.80;;
12842;SDS011;35724;49.324;-123.118;2023-10-13T09:58:57;0.73;;;0.73;;
12842;SDS011;35724;49.324;-123.118;2023-10-13T10:09:12;1.85;;;0.75;;
12842;SDS011;35724;49.324;-123.118;2023-10-13T10:19:27;0.80;;;0.80;;
12842;SDS011;35724;49.324;-123.118;2023-10-13T10:29:39;0.90;;;0.90;;
12842;SDS011;35724;49.324;-123.118;2023-10-13T10:40:00;1.55;;;0.77;;
12842;SDS011;35724;49.324;-123.118;2023-10-13T10:50:25;0.77;;;0.75;;
12842;SDS011;35724;49.324;-123.118;2023-10-13T11:00:40;0.70;;;0.70;;
12842;SDS011;35724;49.324;-123.118;2023-10-13T11:10:50;0.70;;;0.70;;
12842;SDS011;35724;49.324;-123.118;2023-10-13T11:20:58;0.70;;;0.70;;
12842;SDS011;35724;49.324;-123.118;2023-10-13T11:31:10;1.00;;;0.90;;
12842;SDS011;35724;49.324;-123.118;2023-10-13T11:41:24;1.08;;;0.80;;
12842;SDS011;35724;49.324;-123.118;2023-10-13T11:51:38;0.70;;;0.70;;
12842;SDS011;35724;49.324;-123.118;2023-10-13T12:01:50;1.50;;;0.90;;
12842;SDS011;35724;49.324;-123.118;2023-10-13T12:12:29;0.60;;;0.60;;
12842;SDS011;35724;49.324;-123.118;2023-10-13T12:22:45;0.82;;;0.80;;
12842;SDS011;35724;49.324;-123.118;2023-10-13T12:32:59;1.65;;;0.80;;
12842;SDS011;35724;49.324;-123.118;2023-10-13T12:43:14;0.88;;;0.80;;
12842;SDS011;35724;49.324;-123.118;2023-10-13T12:53:38;1.45;;;0.77;;
12842;SDS011;35724;49.324;-123.118;2023-10-13T13:03:48;1.42;;;0.80;;
12842;SDS011;35724;49.324;-123.118;2023-10-13T13:13:59;1.33;;;0.80;;
12842;SDS011;35724;49.324;-123.118;2023-10-13T13:24:08;1.23;;;0.70;;
12842;SDS011;35724;49.324;-123.118;2023-10-13T13:34:17;1.73;;;0.80;;
12842;SDS011;35724;49.324;-123.118;2023-10-13T13:44:27;1.42;;;0.90;;
12842;SDS011;35724;49.324;-123.118;2023-10-13T13:54:39;0.80;;;0.80;;
12842;SDS011;35724;49.324;-123.118;2023-10-13T14:04:48;1.33;;;0.90;;
12842;SDS011;35724;49.324;-123.118;2023-10-13T14:14:56;1.10;;;0.90;;
12842;SDS011;35724;49.324;-123.118;2023-10-13T14:25:07;0.80;;;0.80;;
12842;SDS011;35724;49.324;-123.118;2023-10-13T14:35:18;0.95;;;0.80;;
12842;SDS011;35724;49.324;-123.118;2023-10-13T14:45:27;1.20;;;0.80;;
12842;SDS011;35724;49.324;-123.118;2023-10-13T14:55:35;2.28;;;1.25;;
12842;SDS011;35724;49.324;-123.118;2023-10-13T15:05:45;4.57;;;1.30;;
12842;SDS011;35724;49.324;-123.118;2023-10-13T15:15:52;2.90;;;1.20;;
12842;SDS011;35724;49.324;-123.118;2023-10-13T15:26:05;1.58;;;1.17;;
12842;SDS011;35724;49.324;-123.118;2023-10-13T15:36:13;4.88;;;1.38;;
12842;SDS011;35724;49.324;-123.118;2023-10-13T15:46:22;8.07;;;1.50;;
12842;SDS011;35724;49.324;-123.118;2023-10-13T15:56:33;6.10;;;1.63;;
12842;SDS011;35724;49.324;-123.118;2023-10-13T16:06:45;4.57;;;1.50;;
12842;SDS011;35724;49.324;-123.118;2023-10-13T16:16:54;4.30;;;1.58;;
12842;SDS011;35724;49.324;-123.118;2023-10-13T16:27:03;3.25;;;1.60;;
12842;SDS011;35724;49.324;-123.118;2023-10-13T16:37:10;2.95;;;1.65;;
12842;SDS011;35724;49.324;-123.118;2023-10-13T16:47:22;3.67;;;1.67;;
12842;SDS011;35724;49.324;-123.118;2023-10-13T16:57:29;2.53;;;1.80;;
12842;SDS011;35724;49.324;-123.118;2023-10-13T17:07:38;3.00;;;1.90;;
12842;SDS011;35724;49.324;-123.118;2023-10-13T17:17:45;2.85;;;1.70;;
12842;SDS011;35724;49.324;-123.118;2023-10-13T17:27:55;2.53;;;1.70;;
12842;SDS011;35724;49.324;-123.118;2023-10-13T17:38:02;4.57;;;1.95;;
12842;SDS011;35724;49.324;-123.118;2023-10-13T17:48:11;3.85;;;1.63;;
12842;SDS011;35724;49.324;-123.118;2023-10-13T17:58:18;2.63;;;1.50;;
12842;SDS011;35724;49.324;-123.118;2023-10-13T18:08:27;2.65;;;1.58;;
12842;SDS011;35724;49.324;-123.118;2023-10-13T18:18:35;2.55;;;1.42;;
12842;SDS011;35724;49.324;-123.118;2023-10-13T18:28:44;3.38;;;1.40;;
12842;SDS011;35724;49.324;-123.118;2023-10-13T18:38:54;1.75;;;1.00;;
12842;SDS011;35724;49.324;-123.118;2023-10-13T18:49:06;3.08;;;1.30;;
12842;SDS011;35724;49.324;-123.118;2023-10-13T18:59:16;1.73;;;1.40;;
12842;SDS011;35724;49.324;-123.118;2023-10-13T19:09:25;2.17;;;1.17;;
12842;SDS011;35724;49.324;-123.118;2023-10-13T19:19:32;1.45;;;1.17;;
12842;SDS011;35724;49.324;-123.118;2023-10-13T19:29:40;1.30;;;1.20;;
12842;SDS011;35724;49.324;-123.118;2023-10-13T19:39:47;1.95;;;1.38;;
12842;SDS011;35724;49.324;-123.118;2023-10-13T19:49:56;1.55;;;1.40;;
12842;SDS011;35724;49.324;-123.118;2023-10-13T20:00:03;2.33;;;1.30;;
12842;SDS011;35724;49.324;-123.118;2023-10-13T20:10:25;3.30;;;1.30;;
12842;SDS011;35724;49.324;-123.118;2023-10-13T20:20:32;3.10;;;1.75;;
12842;SDS011;35724;49.324;-123.118;2023-10-13T20:30:44;3.53;;;1.67;;
12842;SDS011;35724;49.324;-123.118;2023-10-13T20:40:58;2.90;;;1.40;;
12842;SDS011;35724;49.324;-123.118;2023-10-13T20:51:09;3.88;;;1.55;;
12842;SDS011;35724;49.324;-123.118;2023-10-13T21:01:20;2.20;;;1.50;;
12842;SDS011;35724;49.324;-123.118;2023-10-13T21:11:28;3.17;;;1.58;;
12842;SDS011;35724;49.324;-123.118;2023-10-13T21:21:36;2.08;;;1.55;;
12842;SDS011;35724;49.324;-123.118;2023-10-13T21:31:46;3.08;;;1.58;;
12842;SDS011;35724;49.324;-123.118;2023-10-13T21:41:54;3.22;;;1.55;;
12842;SDS011;35724;49.324;-123.118;2023-10-13T21:52:02;1.65;;;1.48;;
12842;SDS011;35724;49.324;-123.118;2023-10-13T22:02:10;2.15;;;1.23;;
12842;SDS011;35724;49.324;-123.118;2023-10-13T22:12:20;4.03;;;1.80;;
12842;SDS011;35724;49.324;-123.118;2023-10-13T22:22:27;1.40;;;1.30;;
12842;SDS011;35724;49.324;-123.118;2023-10-13T22:32:35;3.83;;;1.42;;
12842;SDS011;35724;49.324;-123.118;2023-10-13T22:42:43;3.83;;;1.70;;
12842;SDS011;35724;49.324;-123.118;2023-10-13T22:52:53;1.90;;;1.30;;
12842;SDS011;35724;49.324;-123.118;2023-10-13T23:03:03;1.88;;;1.33;;
12842;SDS011;35724;49.324;-123.118;2023-10-13T23:13:14;2.10;;;1.20;;
12842;SDS011;35724;49.324;-123.118;2023-10-13T23:23:22;1.75;;;1.17;;
12842;SDS011;35724;49.324;-123.118;2023-10-13T23:33:30;2.13;;;1.20;;
12842;SDS011;35724;49.324;-123.118;2023-10-13T23:43:38;4.25;;;1.50;;
12842;SDS011;35724;49.324;-123.118;2023-10-13T23:53:50;2.28;;;1.10;;
